sensor_id;sensor_type;location;lat;lon;timestamp;pressure;altitude;pressure_sealevel;temperature;humidity
76052;BME280;64751;48.708;9.710;2023-08-17T14:32:37;97663.63;;;23.32;90.61
76052;BME280;64751;48.708;9.710;2023-08-17T14:35:06;97653.09;;;23.23;91.00
76052;BME280;64751;48.708;9.710;2023-08-17T14:37:34;97647.22;;;23.18;92.05
76052;BME280;64751;48.708;9.710;2023-08-17T14:40:02;97637.00;;;23.07;94.46
76052;BME280;64751;48.708;9.710;2023-08-17T14:42:30;97641.16;;;23.05;94.77
76052;BME280;64751;48.708;9.710;2023-08-17T14:44:58;97641.38;;;22.96;96.91
76052;BME280;64751;48.708;9.710;2023-08-17T14:47:26;97640.91;;;22.91;96.81
76052;BME280;64751;48.708;9.710;2023-08-17T14:49:55;97646.56;;;22.86;96.87
76052;BME280;64751;48.708;9.710;2023-08-17T14:52:23;97630.66;;;22.81;97.84
76052;BME280;64751;48.708;9.710;2023-08-17T14:54:52;97627.19;;;22.80;98.15
76052;BME280;64751;48.708;9.710;2023-08-17T14:57:20;97624.75;;;22.75;98.84
76052;BME280;64751;48.708;9.710;2023-08-17T14:59:48;97614.28;;;22.70;99.34
76052;BME280;64751;48.708;9.710;2023-08-17T15:02:16;97609.19;;;22.65;100.00
76052;BME280;64751;48.708;9.710;2023-08-17T15:04:45;97606.50;;;22.65;100.00
76052;BME280;64751;48.708;9.710;2023-08-17T15:07:15;97609.53;;;22.64;100.00
76052;BME280;64751;48.708;9.710;2023-08-17T15:09:43;97606.44;;;22.62;100.00
76052;BME280;64751;48.708;9.710;2023-08-17T15:12:11;97605.97;;;22.60;100.00
76052;BME280;64751;48.708;9.710;2023-08-17T15:14:39;97599.00;;;22.59;100.00
76052;BME280;64751;48.708;9.710;2023-08-17T15:17:07;97597.44;;;22.58;100.00
76052;BME280;64751;48.708;9.710;2023-08-17T15:19:35;97585.47;;;22.55;100.00
76052;BME280;64751;48.708;9.710;2023-08-17T15:22:03;97580.72;;;22.49;100.00
76052;BME280;64751;48.708;9.710;2023-08-17T15:24:33;97568.47;;;22.51;100.00
76052;BME280;64751;48.708;9.710;2023-08-17T15:27:01;97556.84;;;22.47;100.00
76052;BME280;64751;48.708;9.710;2023-08-17T15:29:29;97556.41;;;22.45;100.00
76052;BME280;64751;48.708;9.710;2023-08-17T15:31:57;97550.59;;;22.43;100.00
76052;BME280;64751;48.708;9.710;2023-08-17T15:34:28;97541.06;;;22.46;100.00
76052;BME280;64751;48.708;9.710;2023-08-17T15:37:14;97542.97;;;22.45;100.00
76052;BME280;64751;48.708;9.710;2023-08-17T15:39:46;97542.16;;;22.45;100.00
76052;BME280;64751;48.708;9.710;2023-08-17T15:42:15;97547.50;;;22.41;100.00
76052;BME280;64751;48.708;9.710;2023-08-17T15:44:43;97540.53;;;22.40;100.00
76052;BME280;64751;48.708;9.710;2023-08-17T15:47:11;97543.59;;;22.38;100.00
76052;BME280;64751;48.708;9.710;2023-08-17T15:49:39;97537.25;;;22.31;100.00
76052;BME280;64751;48.708;9.710;2023-08-17T15:52:07;97548.13;;;22.34;100.00
76052;BME280;64751;48.708;9.710;2023-08-17T15:54:35;97552.72;;;22.34;100.00
76052;BME280;64751;48.708;9.710;2023-08-17T15:57:05;97564.19;;;22.31;100.00
76052;BME280;64751;48.708;9.710;2023-08-17T15:59:33;97586.91;;;22.33;100.00
76052;BME280;64751;48.708;9.710;2023-08-17T16:02:02;97590.41;;;22.34;100.00
76052;BME280;64751;48.708;9.710;2023-08-17T16:04:30;97597.31;;;22.35;100.00
76052;BME280;64751;48.708;9.710;2023-08-17T16:06:58;97596.56;;;22.34;100.00
76052;BME280;64751;48.708;9.710;2023-08-17T16:09:26;97604.28;;;22.36;100.00
76052;BME280;64751;48.708;9.710;2023-08-17T16:11:54;97609.31;;;22.37;100.00
76052;BME280;64751;48.708;9.710;2023-08-17T16:14:23;97620.06;;;22.37;100.00
76052;BME280;64751;48.708;9.710;2023-08-17T16:16:51;97618.94;;;22.38;100.00
76052;BME280;64751;48.708;9.710;2023-08-17T16:19:20;97621.28;;;22.40;100.00
76052;BME280;64751;48.708;9.710;2023-08-17T16:21:48;97616.69;;;22.41;100.00
76052;BME280;64751;48.708;9.710;2023-08-17T16:24:16;97625.56;;;22.41;100.00
76052;BME280;64751;48.708;9.710;2023-08-17T16:26:44;97619.75;;;22.39;100.00
76052;BME280;64751;48.708;9.710;2023-08-17T16:29:12;97619.22;;;22.33;100.00
76052;BME280;64751;48.708;9.710;2023-08-17T16:31:42;97623.91;;;22.36;100.00
76052;BME280;64751;48.708;9.710;2023-08-17T16:34:09;97626.66;;;22.40;100.00
76052;BME280;64751;48.708;9.710;2023-08-17T16:36:37;97632.22;;;22.47;100.00
76052;BME280;64751;48.708;9.710;2023-08-17T16:39:05;97623.44;;;22.50;100.00
76052;BME280;64751;48.708;9.710;2023-08-17T16:41:33;97625.00;;;22.51;100.00
76052;BME280;64751;48.708;9.710;2023-08-17T16:44:01;97636.63;;;22.55;100.00
76052;BME280;64751;48.708;9.710;2023-08-17T16:46:29;97623.25;;;22.59;100.00
76052;BME280;64751;48.708;9.710;2023-08-17T16:48:58;97627.19;;;22.61;100.00
76052;BME280;64751;48.708;9.710;2023-08-17T16:51:26;97628.47;;;22.67;100.00
76052;BME280;64751;48.708;9.710;2023-08-17T16:53:54;97628.09;;;22.69;100.00
76052;BME280;64751;48.708;9.710;2023-08-17T16:56:22;97632.72;;;22.68;100.00
76052;BME280;64751;48.708;9.710;2023-08-17T16:58:51;97650.16;;;22.74;100.00
76052;BME280;64751;48.708;9.710;2023-08-17T17:01:19;97657.44;;;22.74;100.00
76052;BME280;64751;48.708;9.710;2023-08-17T17:03:47;97647.81;;;22.73;100.00
76052;BME280;64751;48.708;9.710;2023-08-17T17:06:16;97644.69;;;22.71;100.00
76052;BME280;64751;48.708;9.710;2023-08-17T17:08:44;97645.03;;;22.69;100.00
76052;BME280;64751;48.708;9.710;2023-08-17T17:11:12;97652.69;;;22.67;100.00
76052;BME280;64751;48.708;9.710;2023-08-17T17:13:40;97649.94;;;22.64;100.00
76052;BME280;64751;48.708;9.710;2023-08-17T17:16:08;97644.88;;;22.62;100.00
76052;BME280;64751;48.708;9.710;2023-08-17T17:18:35;97649.84;;;22.60;99.79
76052;BME280;64751;48.708;9.710;2023-08-17T17:21:05;97652.53;;;22.60;99.77
76052;BME280;64751;48.708;9.710;2023-08-17T17:23:35;97644.00;;;22.58;99.42
76052;BME280;64751;48.708;9.710;2023-08-17T17:26:03;97647.47;;;22.59;99.29
76052;BME280;64751;48.708;9.710;2023-08-17T17:28:34;97645.91;;;22.58;99.62
76052;BME280;64751;48.708;9.710;2023-08-17T17:31:03;97638.63;;;22.58;99.36
76052;BME280;64751;48.708;9.710;2023-08-17T17:33:31;97630.91;;;22.57;98.24
76052;BME280;64751;48.708;9.710;2023-08-17T17:35:59;97636.38;;;22.60;98.13
76052;BME280;64751;48.708;9.710;2023-08-17T17:38:27;97644.78;;;22.59;97.73
76052;BME280;64751;48.708;9.710;2023-08-17T17:40:57;97638.63;;;22.58;97.80
76052;BME280;64751;48.708;9.710;2023-08-17T17:43:25;97650.25;;;22.62;97.83
76052;BME280;64751;48.708;9.710;2023-08-17T17:45:53;97651.75;;;22.60;98.12
76052;BME280;64751;48.708;9.710;2023-08-17T17:48:20;97652.19;;;22.62;98.21
76052;BME280;64751;48.708;9.710;2023-08-17T17:50:48;97644.44;;;22.60;97.85
76052;BME280;64751;48.708;9.710;2023-08-17T17:53:16;97653.31;;;22.61;97.51
76052;BME280;64751;48.708;9.710;2023-08-17T17:55:44;97654.09;;;22.61;97.32
76052;BME280;64751;48.708;9.710;2023-08-17T17:58:13;97658.25;;;22.59;96.97
76052;BME280;64751;48.708;9.710;2023-08-17T18:00:41;97659.72;;;22.56;97.38
76052;BME280;64751;48.708;9.710;2023-08-17T18:03:11;97658.88;;;22.52;97.22
76052;BME280;64751;48.708;9.710;2023-08-17T18:05:40;97664.53;;;22.47;97.30
76052;BME280;64751;48.708;9.710;2023-08-17T18:08:09;97666.78;;;22.45;97.31
76052;BME280;64751;48.708;9.710;2023-08-17T18:10:38;97665.22;;;22.44;97.83
76052;BME280;64751;48.708;9.710;2023-08-17T18:13:06;97679.03;;;22.43;98.07
76052;BME280;64751;48.708;9.710;2023-08-17T18:15:36;97676.69;;;22.41;97.79
76052;BME280;64751;48.708;9.710;2023-08-17T18:18:05;97678.16;;;22.38;97.74
76052;BME280;64751;48.708;9.710;2023-08-17T18:20:33;97678.97;;;22.39;97.54
76052;BME280;64751;48.708;9.710;2023-08-17T18:23:01;97682.75;;;22.38;97.80
76052;BME280;64751;48.708;9.710;2023-08-17T18:25:29;97682.59;;;22.31;97.82
76052;BME280;64751;48.708;9.710;2023-08-17T18:27:58;97692.84;;;22.25;97.87
76052;BME280;64751;48.708;9.710;2023-08-17T18:30:26;97697.44;;;22.25;97.70
76052;BME280;64751;48.708;9.710;2023-08-17T18:32:55;97694.59;;;22.18;97.09
76052;BME280;64751;48.708;9.710;2023-08-17T18:35:23;97689.88;;;22.15;97.31
76052;BME280;64751;48.708;9.710;2023-08-17T18:37:51;97672.81;;;22.07;96.88
76052;BME280;64751;48.708;9.710;2023-08-17T18:40:19;97687.38;;;22.06;96.62
76052;BME280;64751;48.708;9.710;2023-08-17T18:42:48;97680.34;;;22.02;96.64
76052;BME280;64751;48.708;9.710;2023-08-17T18:45:16;97675.69;;;21.99;96.25
76052;BME280;64751;48.708;9.710;2023-08-17T18:47:45;97680.94;;;21.95;96.50
76052;BME280;64751;48.708;9.710;2023-08-17T18:50:15;97681.75;;;21.96;95.84
76052;BME280;64751;48.708;9.710;2023-08-17T18:52:43;97677.03;;;21.93;96.01
76052;BME280;64751;48.708;9.710;2023-08-17T18:55:12;97683.63;;;21.95;95.96
76052;BME280;64751;48.708;9.710;2023-08-17T18:57:40;97692.41;;;21.92;95.08
76052;BME280;64751;48.708;9.710;2023-08-17T19:00:09;97689.19;;;21.87;95.22
76052;BME280;64751;48.708;9.710;2023-08-17T19:02:38;97698.25;;;21.82;94.79
76052;BME280;64751;48.708;9.710;2023-08-17T19:05:07;97701.19;;;21.77;94.27
76052;BME280;64751;48.708;9.710;2023-08-17T19:07:36;97706.06;;;21.72;91.10
76052;BME280;64751;48.708;9.710;2023-08-17T19:10:05;97707.88;;;21.67;92.04
76052;BME280;64751;48.708;9.710;2023-08-17T19:12:33;97712.03;;;21.65;90.97
76052;BME280;64751;48.708;9.710;2023-08-17T19:15:01;97722.66;;;21.61;90.90
76052;BME280;64751;48.708;9.710;2023-08-17T19:17:29;97723.09;;;21.63;91.59
76052;BME280;64751;48.708;9.710;2023-08-17T19:19:57;97718.00;;;21.58;89.37
76052;BME280;64751;48.708;9.710;2023-08-17T19:22:25;97717.53;;;21.56;89.34
76052;BME280;64751;48.708;9.710;2023-08-17T19:24:54;97723.25;;;21.55;87.80
76052;BME280;64751;48.708;9.710;2023-08-17T19:27:22;97712.88;;;21.53;88.26
76052;BME280;64751;48.708;9.710;2023-08-17T19:29:50;97713.97;;;21.52;86.88
76052;BME280;64751;48.708;9.710;2023-08-17T19:32:17;97723.19;;;21.51;87.70
76052;BME280;64751;48.708;9.710;2023-08-17T19:34:45;97728.88;;;21.50;88.38
76052;BME280;64751;48.708;9.710;2023-08-17T19:37:13;97726.91;;;21.47;88.62
76052;BME280;64751;48.708;9.710;2023-08-17T19:39:41;97725.22;;;21.42;88.21
76052;BME280;64751;48.708;9.710;2023-08-17T19:42:10;97724.00;;;21.40;88.10
76052;BME280;64751;48.708;9.710;2023-08-17T19:44:38;97723.88;;;21.36;85.75
76052;BME280;64751;48.708;9.710;2023-08-17T19:47:06;97728.06;;;21.34;87.02
76052;BME280;64751;48.708;9.710;2023-08-17T19:49:34;97728.72;;;21.31;88.12
76052;BME280;64751;48.708;9.710;2023-08-17T19:52:03;97730.97;;;21.29;87.76
76052;BME280;64751;48.708;9.710;2023-08-17T19:54:30;97725.06;;;21.23;88.12
76052;BME280;64751;48.708;9.710;2023-08-17T19:56:58;97731.78;;;21.17;88.06
76052;BME280;64751;48.708;9.710;2023-08-17T19:59:27;97737.09;;;21.14;88.35
76052;BME280;64751;48.708;9.710;2023-08-17T20:01:55;97739.56;;;21.07;88.53
76052;BME280;64751;48.708;9.710;2023-08-17T20:04:23;97733.59;;;21.01;89.07
76052;BME280;64751;48.708;9.710;2023-08-17T20:06:51;97735.75;;;20.95;89.10
76052;BME280;64751;48.708;9.710;2023-08-17T20:09:19;97728.69;;;20.91;89.14
76052;BME280;64751;48.708;9.710;2023-08-17T20:11:46;97726.00;;;20.91;89.30
76052;BME280;64751;48.708;9.710;2023-08-17T20:14:14;97717.75;;;20.84;89.07
76052;BME280;64751;48.708;9.710;2023-08-17T20:16:43;97721.09;;;20.81;88.84
76052;BME280;64751;48.708;9.710;2023-08-17T20:19:11;97702.78;;;20.71;89.16
76052;BME280;64751;48.708;9.710;2023-08-17T20:21:39;97708.13;;;20.71;89.33
76052;BME280;64751;48.708;9.710;2023-08-17T20:24:08;97703.78;;;20.66;89.85
76052;BME280;64751;48.708;9.710;2023-08-17T20:26:36;97700.31;;;20.66;90.21
76052;BME280;64751;48.708;9.710;2023-08-17T20:29:04;97706.91;;;20.68;90.45
76052;BME280;64751;48.708;9.710;2023-08-17T20:31:32;97700.31;;;20.66;89.77
76052;BME280;64751;48.708;9.710;2023-08-17T20:34:01;97701.66;;;20.60;90.20
76052;BME280;64751;48.708;9.710;2023-08-17T20:36:29;97702.34;;;20.57;90.17
76052;BME280;64751;48.708;9.710;2023-08-17T20:38:57;97699.06;;;20.51;90.01
76052;BME280;64751;48.708;9.710;2023-08-17T20:41:31;97696.75;;;20.50;90.55
76052;BME280;64751;48.708;9.710;2023-08-17T20:43:59;97699.66;;;20.45;89.93
76052;BME280;64751;48.708;9.710;2023-08-17T20:46:27;97704.91;;;20.41;89.88
76052;BME280;64751;48.708;9.710;2023-08-17T20:48:56;97702.78;;;20.35;90.02
76052;BME280;64751;48.708;9.710;2023-08-17T20:51:26;97700.75;;;20.32;89.54
76052;BME280;64751;48.708;9.710;2023-08-17T20:53:54;97703.66;;;20.27;89.57
76052;BME280;64751;48.708;9.710;2023-08-17T20:56:23;97704.34;;;20.23;89.51
76052;BME280;64751;48.708;9.710;2023-08-17T20:58:51;97705.31;;;20.19;89.70
76052;BME280;64751;48.708;9.710;2023-08-17T21:01:19;97704.09;;;20.16;89.56
76052;BME280;64751;48.708;9.710;2023-08-17T21:03:47;97709.00;;;20.14;89.41
76052;BME280;64751;48.708;9.710;2023-08-17T21:06:15;97709.34;;;20.13;89.44
76052;BME280;64751;48.708;9.710;2023-08-17T21:08:44;97723.63;;;20.05;89.04
76052;BME280;64751;48.708;9.710;2023-08-17T21:11:12;97720.03;;;20.01;89.52
76052;BME280;64751;48.708;9.710;2023-08-17T21:13:40;97736.47;;;19.99;88.88
76052;BME280;64751;48.708;9.710;2023-08-17T21:16:09;97732.56;;;19.97;89.20
76052;BME280;64751;48.708;9.710;2023-08-17T21:18:36;97741.69;;;19.96;86.54
76052;BME280;64751;48.708;9.710;2023-08-17T21:21:04;97730.88;;;19.92;87.37
76052;BME280;64751;48.708;9.710;2023-08-17T21:23:32;97735.09;;;19.93;87.67
76052;BME280;64751;48.708;9.710;2023-08-17T21:26:01;97729.28;;;19.91;85.48
76052;BME280;64751;48.708;9.710;2023-08-17T21:28:30;97729.97;;;19.88;84.42
76052;BME280;64751;48.708;9.710;2023-08-17T21:31:01;97729.97;;;19.88;83.26
76052;BME280;64751;48.708;9.710;2023-08-17T21:33:29;97712.41;;;19.91;82.59
76052;BME280;64751;48.708;9.710;2023-08-17T21:35:57;97713.34;;;19.95;82.75
76052;BME280;64751;48.708;9.710;2023-08-17T21:38:26;97708.72;;;19.95;82.32
76052;BME280;64751;48.708;9.710;2023-08-17T21:40:55;97714.53;;;19.97;82.27
76052;BME280;64751;48.708;9.710;2023-08-17T21:43:26;97707.28;;;19.98;82.68
76052;BME280;64751;48.708;9.710;2023-08-17T21:45:54;97706.19;;;19.99;82.10
76052;BME280;64751;48.708;9.710;2023-08-17T21:48:22;97703.59;;;20.02;82.69
76052;BME280;64751;48.708;9.710;2023-08-17T21:50:50;97711.34;;;20.04;82.45
76052;BME280;64751;48.708;9.710;2023-08-17T21:53:19;97719.03;;;20.05;82.39
76052;BME280;64751;48.708;9.710;2023-08-17T21:55:48;97719.84;;;20.06;82.37
76052;BME280;64751;48.708;9.710;2023-08-17T21:58:16;97714.03;;;20.04;82.67
